sensor_id;sensor_type;location;lat;lon;timestamp;P1;durP1;ratioP1;P2;durP2;ratioP2
47273;SDS011;33007;49.082;19.306;2022-10-01T00:01:53;9.25;;;5.70;;
47273;SDS011;33007;49.082;19.306;2022-10-01T00:04:19;7.93;;;5.63;;
47273;SDS011;33007;49.082;19.306;2022-10-01T00:06:44;7.68;;;5.47;;
47273;SDS011;33007;49.082;19.306;2022-10-01T00:09:10;8.65;;;5.05;;
47273;SDS011;33007;49.082;19.306;2022-10-01T00:11:35;9.25;;;5.70;;
47273;SDS011;33007;49.082;19.306;2022-10-01T00:14:01;8.25;;;5.30;;
47273;SDS011;33007;49.082;19.306;2022-10-01T00:16:27;7.43;;;5.85;;
47273;SDS011;33007;49.082;19.306;2022-10-01T00:18:54;7.82;;;5.10;;
47273;SDS011;33007;49.082;19.306;2022-10-01T00:21:26;6.93;;;5.88;;
47273;SDS011;33007;49.082;19.306;2022-10-01T00:23:57;6.90;;;5.82;;
47273;SDS011;33007;49.082;19.306;2022-10-01T00:26:26;6.97;;;5.60;;
47273;SDS011;33007;49.082;19.306;2022-10-01T00:28:54;6.57;;;5.07;;
47273;SDS011;33007;49.082;19.306;2022-10-01T00:31:22;8.38;;;5.63;;
47273;SDS011;33007;49.082;19.306;2022-10-01T00:33:50;10.50;;;6.05;;
47273;SDS011;33007;49.082;19.306;2022-10-01T00:36:20;8.80;;;5.55;;
47273;SDS011;33007;49.082;19.306;2022-10-01T00:38:46;8.98;;;6.15;;
47273;SDS011;33007;49.082;19.306;2022-10-01T00:41:12;7.85;;;6.22;;
47273;SDS011;33007;49.082;19.306;2022-10-01T00:43:46;9.88;;;6.53;;
47273;SDS011;33007;49.082;19.306;2022-10-01T00:46:18;6.65;;;5.70;;
47273;SDS011;33007;49.082;19.306;2022-10-01T00:48:59;10.85;;;5.65;;
47273;SDS011;33007;49.082;19.306;2022-10-01T00:51:25;8.95;;;6.20;;
47273;SDS011;33007;49.082;19.306;2022-10-01T00:53:57;7.53;;;5.40;;
47273;SDS011;33007;49.082;19.306;2022-10-01T00:56:30;8.77;;;5.97;;
47273;SDS011;33007;49.082;19.306;2022-10-01T00:58:56;9.13;;;5.88;;
47273;SDS011;33007;49.082;19.306;2022-10-01T01:01:30;9.85;;;5.93;;
47273;SDS011;33007;49.082;19.306;2022-10-01T01:03:59;6.25;;;5.50;;
47273;SDS011;33007;49.082;19.306;2022-10-01T01:06:24;13.00;;;5.75;;
47273;SDS011;33007;49.082;19.306;2022-10-01T01:08:50;11.05;;;5.15;;
47273;SDS011;33007;49.082;19.306;2022-10-01T01:14:09;9.88;;;4.18;;
47273;SDS011;33007;49.082;19.306;2022-10-01T01:16:48;5.28;;;3.83;;
47273;SDS011;33007;49.082;19.306;2022-10-01T01:19:24;5.60;;;3.40;;
47273;SDS011;33007;49.082;19.306;2022-10-01T01:22:02;7.93;;;4.10;;
47273;SDS011;33007;49.082;19.306;2022-10-01T01:30:22;8.82;;;4.80;;
47273;SDS011;33007;49.082;19.306;2022-10-01T01:35:23;12.20;;;5.47;;
47273;SDS011;33007;49.082;19.306;2022-10-01T01:37:58;8.05;;;5.88;;
47273;SDS011;33007;49.082;19.306;2022-10-01T01:40:28;9.75;;;6.75;;
47273;SDS011;33007;49.082;19.306;2022-10-01T01:42:56;13.73;;;7.38;;
47273;SDS011;33007;49.082;19.306;2022-10-01T01:45:26;31.83;;;9.55;;
47273;SDS011;33007;49.082;19.306;2022-10-01T01:47:54;11.32;;;8.23;;
47273;SDS011;33007;49.082;19.306;2022-10-01T01:50:22;12.23;;;7.78;;
47273;SDS011;33007;49.082;19.306;2022-10-01T01:52:52;15.23;;;7.85;;
47273;SDS011;33007;49.082;19.306;2022-10-01T01:55:19;13.93;;;9.73;;
47273;SDS011;33007;49.082;19.306;2022-10-01T01:57:47;14.95;;;9.27;;
47273;SDS011;33007;49.082;19.306;2022-10-01T02:00:14;14.73;;;8.90;;
47273;SDS011;33007;49.082;19.306;2022-10-01T02:02:41;11.52;;;6.85;;
47273;SDS011;33007;49.082;19.306;2022-10-01T02:05:12;10.27;;;6.90;;
47273;SDS011;33007;49.082;19.306;2022-10-01T02:08:03;11.15;;;7.07;;
47273;SDS011;33007;49.082;19.306;2022-10-01T02:16:32;7.85;;;5.85;;
47273;SDS011;33007;49.082;19.306;2022-10-01T02:21:31;19.33;;;8.25;;
47273;SDS011;33007;49.082;19.306;2022-10-01T02:26:59;12.02;;;6.82;;
47273;SDS011;33007;49.082;19.306;2022-10-01T02:29:30;390.23;;;27.20;;
47273;SDS011;33007;49.082;19.306;2022-10-01T02:31:57;9.02;;;5.80;;
47273;SDS011;33007;49.082;19.306;2022-10-01T02:34:27;10.27;;;6.07;;
47273;SDS011;33007;49.082;19.306;2022-10-01T02:36:54;7.38;;;4.80;;
47273;SDS011;33007;49.082;19.306;2022-10-01T02:39:24;6.18;;;3.97;;
47273;SDS011;33007;49.082;19.306;2022-10-01T02:41:53;5.18;;;3.50;;
47273;SDS011;33007;49.082;19.306;2022-10-01T02:44:22;6.13;;;4.00;;
47273;SDS011;33007;49.082;19.306;2022-10-01T02:49:24;5.60;;;4.40;;
47273;SDS011;33007;49.082;19.306;2022-10-01T02:54:48;7.03;;;4.45;;
47273;SDS011;33007;49.082;19.306;2022-10-01T02:57:19;4.93;;;4.30;;
47273;SDS011;33007;49.082;19.306;2022-10-01T03:00:07;5.80;;;4.15;;
47273;SDS011;33007;49.082;19.306;2022-10-01T03:02:36;6.30;;;3.92;;
47273;SDS011;33007;49.082;19.306;2022-10-01T03:05:02;4.80;;;4.10;;
47273;SDS011;33007;49.082;19.306;2022-10-01T03:07:29;7.85;;;4.30;;
47273;SDS011;33007;49.082;19.306;2022-10-01T03:09:56;6.20;;;4.70;;
47273;SDS011;33007;49.082;19.306;2022-10-01T03:12:22;5.93;;;4.20;;
47273;SDS011;33007;49.082;19.306;2022-10-01T03:14:49;6.28;;;4.13;;
47273;SDS011;33007;49.082;19.306;2022-10-01T03:17:15;5.80;;;4.72;;
47273;SDS011;33007;49.082;19.306;2022-10-01T03:19:42;6.93;;;4.40;;
47273;SDS011;33007;49.082;19.306;2022-10-01T03:22:08;5.35;;;4.35;;
47273;SDS011;33007;49.082;19.306;2022-10-01T03:24:37;5.53;;;4.33;;
47273;SDS011;33007;49.082;19.306;2022-10-01T03:27:03;5.68;;;4.60;;
47273;SDS011;33007;49.082;19.306;2022-10-01T03:29:29;6.60;;;4.63;;
47273;SDS011;33007;49.082;19.306;2022-10-01T03:31:54;4.90;;;4.50;;
47273;SDS011;33007;49.082;19.306;2022-10-01T03:34:20;5.22;;;4.50;;
47273;SDS011;33007;49.082;19.306;2022-10-01T03:36:46;6.05;;;4.63;;
47273;SDS011;33007;49.082;19.306;2022-10-01T03:39:12;4.55;;;4.07;;
47273;SDS011;33007;49.082;19.306;2022-10-01T03:41:38;5.45;;;4.35;;
47273;SDS011;33007;49.082;19.306;2022-10-01T03:44:04;5.68;;;4.88;;
47273;SDS011;33007;49.082;19.306;2022-10-01T03:46:30;5.55;;;4.93;;
47273;SDS011;33007;49.082;19.306;2022-10-01T03:48:56;31.30;;;6.18;;
47273;SDS011;33007;49.082;19.306;2022-10-01T03:51:25;77.85;;;8.23;;
47273;SDS011;33007;49.082;19.306;2022-10-01T03:53:52;16.73;;;5.53;;
47273;SDS011;33007;49.082;19.306;2022-10-01T03:56:19;7.70;;;5.07;;
47273;SDS011;33007;49.082;19.306;2022-10-01T03:58:44;7.88;;;5.45;;
47273;SDS011;33007;49.082;19.306;2022-10-01T04:01:10;7.35;;;5.07;;
47273;SDS011;33007;49.082;19.306;2022-10-01T04:03:36;6.85;;;5.82;;
47273;SDS011;33007;49.082;19.306;2022-10-01T04:06:01;6.30;;;5.65;;
47273;SDS011;33007;49.082;19.306;2022-10-01T04:08:27;8.07;;;5.85;;
47273;SDS011;33007;49.082;19.306;2022-10-01T04:10:53;6.10;;;5.50;;
47273;SDS011;33007;49.082;19.306;2022-10-01T04:13:18;8.55;;;5.68;;
47273;SDS011;33007;49.082;19.306;2022-10-01T04:15:44;6.95;;;5.65;;
47273;SDS011;33007;49.082;19.306;2022-10-01T04:18:12;8.35;;;5.90;;
47273;SDS011;33007;49.082;19.306;2022-10-01T04:20:38;7.72;;;5.95;;
47273;SDS011;33007;49.082;19.306;2022-10-01T04:23:04;6.93;;;6.22;;
47273;SDS011;33007;49.082;19.306;2022-10-01T04:25:30;8.13;;;5.88;;
47273;SDS011;33007;49.082;19.306;2022-10-01T04:27:57;6.70;;;5.45;;
47273;SDS011;33007;49.082;19.306;2022-10-01T04:30:25;7.43;;;4.88;;
47273;SDS011;33007;49.082;19.306;2022-10-01T04:32:52;6.00;;;5.40;;
47273;SDS011;33007;49.082;19.306;2022-10-01T04:35:18;6.03;;;5.43;;
47273;SDS011;33007;49.082;19.306;2022-10-01T04:37:44;6.68;;;5.30;;
47273;SDS011;33007;49.082;19.306;2022-10-01T04:40:10;6.05;;;5.43;;
47273;SDS011;33007;49.082;19.306;2022-10-01T04:42:39;7.15;;;5.70;;
47273;SDS011;33007;49.082;19.306;2022-10-01T04:45:08;6.05;;;5.43;;
47273;SDS011;33007;49.082;19.306;2022-10-01T04:47:35;8.40;;;5.60;;
47273;SDS011;33007;49.082;19.306;2022-10-01T04:50:01;7.72;;;5.20;;
47273;SDS011;33007;49.082;19.306;2022-10-01T04:52:26;5.72;;;5.13;;
47273;SDS011;33007;49.082;19.306;2022-10-01T04:54:53;7.25;;;5.32;;
47273;SDS011;33007;49.082;19.306;2022-10-01T04:57:18;6.35;;;5.10;;
47273;SDS011;33007;49.082;19.306;2022-10-01T04:59:47;5.85;;;5.30;;
47273;SDS011;33007;49.082;19.306;2022-10-01T05:02:13;7.47;;;5.45;;
47273;SDS011;33007;49.082;19.306;2022-10-01T05:04:39;9.05;;;6.30;;
47273;SDS011;33007;49.082;19.306;2022-10-01T05:07:05;6.80;;;6.10;;
47273;SDS011;33007;49.082;19.306;2022-10-01T05:09:31;6.75;;;6.03;;
47273;SDS011;33007;49.082;19.306;2022-10-01T05:11:56;8.07;;;6.75;;
47273;SDS011;33007;49.082;19.306;2022-10-01T05:14:22;7.93;;;7.13;;
47273;SDS011;33007;49.082;19.306;2022-10-01T05:16:48;212.00;;;18.33;;
47273;SDS011;33007;49.082;19.306;2022-10-01T05:19:14;7.93;;;6.80;;
47273;SDS011;33007;49.082;19.306;2022-10-01T05:21:40;7.75;;;6.95;;
47273;SDS011;33007;49.082;19.306;2022-10-01T05:24:07;20.95;;;7.82;;
47273;SDS011;33007;49.082;19.306;2022-10-01T05:26:33;7.45;;;6.70;;
47273;SDS011;33007;49.082;19.306;2022-10-01T05:29:01;8.43;;;6.80;;
47273;SDS011;33007;49.082;19.306;2022-10-01T05:31:27;8.93;;;6.53;;
47273;SDS011;33007;49.082;19.306;2022-10-01T05:33:53;8.27;;;7.38;;
47273;SDS011;33007;49.082;19.306;2022-10-01T05:36:18;9.77;;;7.70;;
47273;SDS011;33007;49.082;19.306;2022-10-01T05:38:46;14.23;;;7.53;;
47273;SDS011;33007;49.082;19.306;2022-10-01T05:41:12;9.05;;;8.07;;
47273;SDS011;33007;49.082;19.306;2022-10-01T05:43:37;8.85;;;7.93;;
47273;SDS011;33007;49.082;19.306;2022-10-01T05:46:03;9.18;;;8.10;;
47273;SDS011;33007;49.082;19.306;2022-10-01T05:48:29;9.05;;;8.13;;
47273;SDS011;33007;49.082;19.306;2022-10-01T05:51:00;9.18;;;7.68;;
47273;SDS011;33007;49.082;19.306;2022-10-01T05:53:32;9.70;;;7.88;;
47273;SDS011;33007;49.082;19.306;2022-10-01T05:56:02;10.93;;;8.33;;
47273;SDS011;33007;49.082;19.306;2022-10-01T05:58:29;10.68;;;8.43;;
47273;SDS011;33007;49.082;19.306;2022-10-01T06:00:55;12.27;;;9.07;;
47273;SDS011;33007;49.082;19.306;2022-10-01T06:03:21;11.00;;;8.63;;
47273;SDS011;33007;49.082;19.306;2022-10-01T06:05:47;26.88;;;10.05;;
47273;SDS011;33007;49.082;19.306;2022-10-01T06:08:12;11.32;;;9.45;;
47273;SDS011;33007;49.082;19.306;2022-10-01T06:10:38;11.35;;;9.27;;
47273;SDS011;33007;49.082;19.306;2022-10-01T06:13:04;10.30;;;8.68;;
47273;SDS011;33007;49.082;19.306;2022-10-01T06:15:31;10.38;;;8.40;;
47273;SDS011;33007;49.082;19.306;2022-10-01T06:18:02;37.08;;;9.40;;
47273;SDS011;33007;49.082;19.306;2022-10-01T06:20:29;11.35;;;8.60;;
47273;SDS011;33007;49.082;19.306;2022-10-01T06:22:55;10.10;;;8.95;;
47273;SDS011;33007;49.082;19.306;2022-10-01T06:25:21;11.50;;;8.73;;
47273;SDS011;33007;49.082;19.306;2022-10-01T06:27:54;11.38;;;8.43;;
47273;SDS011;33007;49.082;19.306;2022-10-01T06:30:25;10.18;;;8.27;;
47273;SDS011;33007;49.082;19.306;2022-10-01T06:35:18;12.40;;;7.70;;
47273;SDS011;33007;49.082;19.306;2022-10-01T06:37:45;8.45;;;7.63;;
47273;SDS011;33007;49.082;19.306;2022-10-01T06:40:11;9.20;;;8.07;;
47273;SDS011;33007;49.082;19.306;2022-10-01T06:42:36;9.30;;;8.27;;
47273;SDS011;33007;49.082;19.306;2022-10-01T06:45:02;10.15;;;8.15;;
47273;SDS011;33007;49.082;19.306;2022-10-01T06:47:28;8.88;;;7.82;;
47273;SDS011;33007;49.082;19.306;2022-10-01T06:49:53;8.80;;;7.88;;
47273;SDS011;33007;49.082;19.306;2022-10-01T06:52:19;9.82;;;8.23;;
47273;SDS011;33007;49.082;19.306;2022-10-01T06:55:03;9.25;;;8.23;;
47273;SDS011;33007;49.082;19.306;2022-10-01T06:57:29;12.18;;;8.25;;
47273;SDS011;33007;49.082;19.306;2022-10-01T06:59:58;10.00;;;7.60;;
47273;SDS011;33007;49.082;19.306;2022-10-01T07:02:25;19.80;;;7.75;;
47273;SDS011;33007;49.082;19.306;2022-10-01T07:04:54;14.25;;;7.35;;
47273;SDS011;33007;49.082;19.306;2022-10-01T07:07:23;8.55;;;6.90;;
47273;SDS011;33007;49.082;19.306;2022-10-01T07:09:50;8.88;;;6.82;;
47273;SDS011;33007;49.082;19.306;2022-10-01T07:12:15;16.83;;;7.55;;
47273;SDS011;33007;49.082;19.306;2022-10-01T07:14:41;11.05;;;7.40;;
47273;SDS011;33007;49.082;19.306;2022-10-01T07:17:06;10.75;;;9.00;;
47273;SDS011;33007;49.082;19.306;2022-10-01T07:19:32;8.95;;;8.00;;
47273;SDS011;33007;49.082;19.306;2022-10-01T07:21:57;11.40;;;8.60;;
47273;SDS011;33007;49.082;19.306;2022-10-01T07:24:23;9.05;;;8.15;;
47273;SDS011;33007;49.082;19.306;2022-10-01T07:26:48;8.15;;;7.22;;
47273;SDS011;33007;49.082;19.306;2022-10-01T07:29:15;13.38;;;10.82;;
47273;SDS011;33007;49.082;19.306;2022-10-01T07:31:41;12.88;;;10.35;;
47273;SDS011;33007;49.082;19.306;2022-10-01T07:34:08;21.63;;;18.52;;
47273;SDS011;33007;49.082;19.306;2022-10-01T07:36:33;12.75;;;10.77;;
47273;SDS011;33007;49.082;19.306;2022-10-01T07:38:59;10.10;;;8.00;;
47273;SDS011;33007;49.082;19.306;2022-10-01T07:41:25;15.43;;;9.07;;
47273;SDS011;33007;49.082;19.306;2022-10-01T07:43:51;8.65;;;7.75;;
47273;SDS011;33007;49.082;19.306;2022-10-01T07:46:16;11.82;;;8.32;;
47273;SDS011;33007;49.082;19.306;2022-10-01T07:48:42;15.57;;;12.75;;
47273;SDS011;33007;49.082;19.306;2022-10-01T07:51:10;11.57;;;9.07;;
47273;SDS011;33007;49.082;19.306;2022-10-01T07:53:36;9.15;;;7.47;;
47273;SDS011;33007;49.082;19.306;2022-10-01T07:56:01;9.23;;;7.30;;
47273;SDS011;33007;49.082;19.306;2022-10-01T07:58:27;7.20;;;5.90;;
47273;SDS011;33007;49.082;19.306;2022-10-01T08:00:53;11.88;;;5.75;;
47273;SDS011;33007;49.082;19.306;2022-10-01T08:03:33;8.30;;;5.10;;
47273;SDS011;33007;49.082;19.306;2022-10-01T08:05:59;5.80;;;5.20;;
47273;SDS011;33007;49.082;19.306;2022-10-01T08:08:27;6.53;;;5.30;;
47273;SDS011;33007;49.082;19.306;2022-10-01T08:10:55;6.10;;;5.50;;
47273;SDS011;33007;49.082;19.306;2022-10-01T08:13:21;6.50;;;4.97;;
47273;SDS011;33007;49.082;19.306;2022-10-01T08:15:49;13.30;;;5.03;;
47273;SDS011;33007;49.082;19.306;2022-10-01T08:18:17;6.68;;;5.13;;
47273;SDS011;33007;49.082;19.306;2022-10-01T08:20:44;6.45;;;4.90;;
47273;SDS011;33007;49.082;19.306;2022-10-01T08:23:11;6.47;;;4.75;;
47273;SDS011;33007;49.082;19.306;2022-10-01T08:25:39;5.15;;;4.22;;
47273;SDS011;33007;49.082;19.306;2022-10-01T08:28:05;6.40;;;4.25;;
47273;SDS011;33007;49.082;19.306;2022-10-01T08:30:35;5.07;;;3.72;;
47273;SDS011;33007;49.082;19.306;2022-10-01T08:33:03;4.07;;;2.53;;
47273;SDS011;33007;49.082;19.306;2022-10-01T08:35:29;3.00;;;2.17;;
47273;SDS011;33007;49.082;19.306;2022-10-01T08:38:02;3.00;;;2.45;;
47273;SDS011;33007;49.082;19.306;2022-10-01T08:40:31;5.20;;;2.40;;
47273;SDS011;33007;49.082;19.306;2022-10-01T08:43:03;3.05;;;2.30;;
47273;SDS011;33007;49.082;19.306;2022-10-01T08:48:36;3.45;;;2.55;;
47273;SDS011;33007;49.082;19.306;2022-10-01T08:51:14;5.88;;;3.92;;
47273;SDS011;33007;49.082;19.306;2022-10-01T08:56:14;4.03;;;3.55;;
47273;SDS011;33007;49.082;19.306;2022-10-01T08:58:47;4.75;;;3.40;;
47273;SDS011;33007;49.082;19.306;2022-10-01T09:01:18;5.10;;;2.90;;
47273;SDS011;33007;49.082;19.306;2022-10-01T09:03:44;2.67;;;2.25;;
47273;SDS011;33007;49.082;19.306;2022-10-01T09:14:03;3.47;;;2.63;;
47273;SDS011;33007;49.082;19.306;2022-10-01T09:17:15;3.65;;;3.33;;
47273;SDS011;33007;49.082;19.306;2022-10-01T09:22:36;7.88;;;4.57;;
47273;SDS011;33007;49.082;19.306;2022-10-01T09:25:11;5.18;;;4.10;;
47273;SDS011;33007;49.082;19.306;2022-10-01T09:27:41;4.53;;;3.50;;
47273;SDS011;33007;49.082;19.306;2022-10-01T09:32:40;3.17;;;2.80;;
47273;SDS011;33007;49.082;19.306;2022-10-01T09:35:31;3.53;;;2.13;;
47273;SDS011;33007;49.082;19.306;2022-10-01T09:38:33;2.45;;;1.65;;
47273;SDS011;33007;49.082;19.306;2022-10-01T09:41:03;0.77;;;0.70;;
47273;SDS011;33007;49.082;19.306;2022-10-01T09:43:34;1.00;;;0.45;;
47273;SDS011;33007;49.082;19.306;2022-10-01T09:46:02;0.85;;;0.57;;
47273;SDS011;33007;49.082;19.306;2022-10-01T09:51:10;2.08;;;0.60;;
47273;SDS011;33007;49.082;19.306;2022-10-01T09:53:42;8.63;;;1.10;;
47273;SDS011;33007;49.082;19.306;2022-10-01T09:56:19;4.38;;;0.60;;
47273;SDS011;33007;49.082;19.306;2022-10-01T09:58:51;0.73;;;0.60;;
47273;SDS011;33007;49.082;19.306;2022-10-01T10:03:58;0.38;;;0.30;;
47273;SDS011;33007;49.082;19.306;2022-10-01T10:06:25;3.30;;;0.50;;
47273;SDS011;33007;49.082;19.306;2022-10-01T10:08:53;0.30;;;0.30;;
47273;SDS011;33007;49.082;19.306;2022-10-01T10:11:26;1.42;;;1.33;;
47273;SDS011;33007;49.082;19.306;2022-10-01T10:13:55;1.35;;;1.23;;
47273;SDS011;33007;49.082;19.306;2022-10-01T10:21:29;77.95;;;6.03;;
47273;SDS011;33007;49.082;19.306;2022-10-01T10:26:50;1.45;;;0.73;;
47273;SDS011;33007;49.082;19.306;2022-10-01T10:29:25;2.35;;;1.20;;
47273;SDS011;33007;49.082;19.306;2022-10-01T10:31:52;16.60;;;2.20;;
47273;SDS011;33007;49.082;19.306;2022-10-01T10:34:20;2.20;;;1.50;;
47273;SDS011;33007;49.082;19.306;2022-10-01T10:36:58;1.60;;;1.40;;
47273;SDS011;33007;49.082;19.306;2022-10-01T10:39:34;3.13;;;1.80;;
47273;SDS011;33007;49.082;19.306;2022-10-01T10:42:04;8.23;;;6.10;;
47273;SDS011;33007;49.082;19.306;2022-10-01T10:44:31;3.03;;;2.72;;
47273;SDS011;33007;49.082;19.306;2022-10-01T10:47:03;1.98;;;1.30;;
47273;SDS011;33007;49.082;19.306;2022-10-01T10:49:33;5.07;;;2.47;;
47273;SDS011;33007;49.082;19.306;2022-10-01T10:52:41;1.73;;;1.50;;
47273;SDS011;33007;49.082;19.306;2022-10-01T10:57:54;3.50;;;1.77;;
47273;SDS011;33007;49.082;19.306;2022-10-01T11:00:23;2.65;;;1.80;;
47273;SDS011;33007;49.082;19.306;2022-10-01T11:05:24;2.00;;;1.65;;
47273;SDS011;33007;49.082;19.306;2022-10-01T11:07:54;2.28;;;1.75;;
47273;SDS011;33007;49.082;19.306;2022-10-01T11:22:40;4.72;;;1.30;;
47273;SDS011;33007;49.082;19.306;2022-10-01T11:26:04;2.25;;;1.30;;
47273;SDS011;33007;49.082;19.306;2022-10-01T11:29:04;2.88;;;1.40;;
47273;SDS011;33007;49.082;19.306;2022-10-01T11:31:39;1.50;;;1.25;;
47273;SDS011;33007;49.082;19.306;2022-10-01T11:36:56;2.10;;;1.00;;
47273;SDS011;33007;49.082;19.306;2022-10-01T11:39:28;1.17;;;0.88;;
47273;SDS011;33007;49.082;19.306;2022-10-01T11:41:59;2.17;;;1.08;;
47273;SDS011;33007;49.082;19.306;2022-10-01T11:44:34;5.63;;;1.27;;
47273;SDS011;33007;49.082;19.306;2022-10-01T11:52:37;1.63;;;1.00;;
47273;SDS011;33007;49.082;19.306;2022-10-01T11:58:03;1.98;;;1.00;;
47273;SDS011;33007;49.082;19.306;2022-10-01T12:00:57;0.75;;;0.70;;
47273;SDS011;33007;49.082;19.306;2022-10-01T12:03:29;1.90;;;0.90;;
47273;SDS011;33007;49.082;19.306;2022-10-01T12:06:01;1.38;;;0.80;;
47273;SDS011;33007;49.082;19.306;2022-10-01T12:08:33;2.63;;;0.88;;
47273;SDS011;33007;49.082;19.306;2022-10-01T12:11:05;2.17;;;1.10;;
47273;SDS011;33007;49.082;19.306;2022-10-01T12:13:41;2.92;;;1.00;;
47273;SDS011;33007;49.082;19.306;2022-10-01T12:16:17;1.25;;;1.10;;
47273;SDS011;33007;49.082;19.306;2022-10-01T12:21:35;2.45;;;1.30;;
47273;SDS011;33007;49.082;19.306;2022-10-01T12:24:12;2.85;;;1.25;;
47273;SDS011;33007;49.082;19.306;2022-10-01T12:37:54;1.90;;;1.10;;
47273;SDS011;33007;49.082;19.306;2022-10-01T12:40:43;2.03;;;1.65;;
47273;SDS011;33007;49.082;19.306;2022-10-01T12:53:51;1.70;;;1.10;;
47273;SDS011;33007;49.082;19.306;2022-10-01T12:56:27;2.00;;;1.02;;
47273;SDS011;33007;49.082;19.306;2022-10-01T13:15:35;2.67;;;1.50;;
47273;SDS011;33007;49.082;19.306;2022-10-01T13:24:13;2.58;;;1.30;;
47273;SDS011;33007;49.082;19.306;2022-10-01T13:27:36;2.72;;;1.23;;
47273;SDS011;33007;49.082;19.306;2022-10-01T13:34:55;2.47;;;1.33;;
47273;SDS011;33007;49.082;19.306;2022-10-01T13:37:35;3.15;;;1.70;;
47273;SDS011;33007;49.082;19.306;2022-10-01T13:40:03;146.25;;;8.90;;
47273;SDS011;33007;49.082;19.306;2022-10-01T13:43:14;3.50;;;1.50;;
47273;SDS011;33007;49.082;19.306;2022-10-01T13:45:46;2.63;;;1.50;;
47273;SDS011;33007;49.082;19.306;2022-10-01T13:48:16;3.00;;;1.77;;
47273;SDS011;33007;49.082;19.306;2022-10-01T13:51:31;3.38;;;1.73;;
47273;SDS011;33007;49.082;19.306;2022-10-01T13:53:36;2.45;;;1.80;;
47273;SDS011;33007;49.082;19.306;2022-10-01T13:56:02;3.33;;;2.45;;
47273;SDS011;33007;49.082;19.306;2022-10-01T14:03:50;3.90;;;2.53;;
47273;SDS011;33007;49.082;19.306;2022-10-01T14:09:02;3.65;;;3.30;;
47273;SDS011;33007;49.082;19.306;2022-10-01T14:11:29;6.85;;;3.58;;
47273;SDS011;33007;49.082;19.306;2022-10-01T14:14:26;4.72;;;3.33;;
47273;SDS011;33007;49.082;19.306;2022-10-01T14:17:17;3.25;;;2.80;;
47273;SDS011;33007;49.082;19.306;2022-10-01T14:19:47;3.60;;;3.10;;
47273;SDS011;33007;49.082;19.306;2022-10-01T14:22:27;3.63;;;2.88;;
47273;SDS011;33007;49.082;19.306;2022-10-01T14:31:02;4.95;;;3.00;;
47273;SDS011;33007;49.082;19.306;2022-10-01T14:36:15;5.32;;;4.40;;
47273;SDS011;33007;49.082;19.306;2022-10-01T14:38:41;9.50;;;7.05;;
47273;SDS011;33007;49.082;19.306;2022-10-01T14:41:14;11.90;;;8.20;;
47273;SDS011;33007;49.082;19.306;2022-10-01T14:43:42;14.60;;;10.20;;
47273;SDS011;33007;49.082;19.306;2022-10-01T14:46:12;21.02;;;10.02;;
47273;SDS011;33007;49.082;19.306;2022-10-01T14:48:39;11.80;;;5.45;;
47273;SDS011;33007;49.082;19.306;2022-10-01T14:51:06;3.67;;;3.05;;
47273;SDS011;33007;49.082;19.306;2022-10-01T14:53:47;5.03;;;2.38;;
47273;SDS011;33007;49.082;19.306;2022-10-01T14:56:14;4.30;;;2.58;;
47273;SDS011;33007;49.082;19.306;2022-10-01T14:58:42;6.13;;;2.45;;
47273;SDS011;33007;49.082;19.306;2022-10-01T15:01:18;4.60;;;2.55;;
47273;SDS011;33007;49.082;19.306;2022-10-01T15:03:45;3.42;;;2.67;;
47273;SDS011;33007;49.082;19.306;2022-10-01T15:06:13;3.50;;;2.75;;
47273;SDS011;33007;49.082;19.306;2022-10-01T15:08:44;6.43;;;2.70;;
47273;SDS011;33007;49.082;19.306;2022-10-01T15:11:21;3.70;;;2.97;;
47273;SDS011;33007;49.082;19.306;2022-10-01T15:13:49;5.65;;;3.20;;
47273;SDS011;33007;49.082;19.306;2022-10-01T15:16:16;4.43;;;2.78;;
47273;SDS011;33007;49.082;19.306;2022-10-01T15:21:25;4.25;;;3.72;;
47273;SDS011;33007;49.082;19.306;2022-10-01T15:23:56;5.28;;;3.28;;
47273;SDS011;33007;49.082;19.306;2022-10-01T15:26:23;5.82;;;3.92;;
47273;SDS011;33007;49.082;19.306;2022-10-01T15:29:28;4.60;;;4.03;;
47273;SDS011;33007;49.082;19.306;2022-10-01T15:31:47;6.72;;;3.67;;
47273;SDS011;33007;49.082;19.306;2022-10-01T15:34:15;5.63;;;3.65;;
47273;SDS011;33007;49.082;19.306;2022-10-01T15:36:43;5.68;;;3.60;;
47273;SDS011;33007;49.082;19.306;2022-10-01T15:41:49;3.72;;;3.05;;
47273;SDS011;33007;49.082;19.306;2022-10-01T15:50:00;4.45;;;1.63;;
47273;SDS011;33007;49.082;19.306;2022-10-01T15:52:32;3.80;;;1.90;;
47273;SDS011;33007;49.082;19.306;2022-10-01T15:55:21;4.10;;;2.08;;
47273;SDS011;33007;49.082;19.306;2022-10-01T16:00:30;7.38;;;2.00;;
47273;SDS011;33007;49.082;19.306;2022-10-01T16:03:01;45.95;;;4.57;;
47273;SDS011;33007;49.082;19.306;2022-10-01T16:05:30;154.85;;;10.93;;
47273;SDS011;33007;49.082;19.306;2022-10-01T16:08:13;52.08;;;4.75;;
47273;SDS011;33007;49.082;19.306;2022-10-01T16:10:45;18.02;;;1.60;;
47273;SDS011;33007;49.082;19.306;2022-10-01T16:13:30;21.77;;;1.63;;
47273;SDS011;33007;49.082;19.306;2022-10-01T16:18:34;3.00;;;1.25;;
47273;SDS011;33007;49.082;19.306;2022-10-01T16:21:03;2.13;;;1.40;;
47273;SDS011;33007;49.082;19.306;2022-10-01T16:26:04;4.15;;;1.65;;
47273;SDS011;33007;49.082;19.306;2022-10-01T16:28:48;1.70;;;1.30;;
47273;SDS011;33007;49.082;19.306;2022-10-01T16:31:21;4.68;;;1.10;;
47273;SDS011;33007;49.082;19.306;2022-10-01T16:33:50;2.85;;;1.25;;
47273;SDS011;33007;49.082;19.306;2022-10-01T16:36:17;3.35;;;1.50;;
47273;SDS011;33007;49.082;19.306;2022-10-01T16:38:44;3.70;;;2.45;;
47273;SDS011;33007;49.082;19.306;2022-10-01T16:41:12;7.90;;;3.33;;
47273;SDS011;33007;49.082;19.306;2022-10-01T16:43:43;4.40;;;3.53;;
47273;SDS011;33007;49.082;19.306;2022-10-01T16:46:09;6.13;;;3.80;;
47273;SDS011;33007;49.082;19.306;2022-10-01T16:48:34;5.82;;;4.55;;
47273;SDS011;33007;49.082;19.306;2022-10-01T16:51:00;4.78;;;3.92;;
47273;SDS011;33007;49.082;19.306;2022-10-01T16:53:25;6.35;;;4.47;;
47273;SDS011;33007;49.082;19.306;2022-10-01T16:55:51;6.25;;;4.30;;
47273;SDS011;33007;49.082;19.306;2022-10-01T16:58:17;6.22;;;4.43;;
47273;SDS011;33007;49.082;19.306;2022-10-01T17:00:43;10.52;;;8.43;;
47273;SDS011;33007;49.082;19.306;2022-10-01T17:03:19;9.45;;;7.30;;
47273;SDS011;33007;49.082;19.306;2022-10-01T17:05:46;9.40;;;5.90;;
47273;SDS011;33007;49.082;19.306;2022-10-01T17:08:12;6.35;;;4.97;;
47273;SDS011;33007;49.082;19.306;2022-10-01T17:11:00;7.30;;;4.35;;
47273;SDS011;33007;49.082;19.306;2022-10-01T17:13:25;14.60;;;3.97;;
47273;SDS011;33007;49.082;19.306;2022-10-01T17:15:53;5.43;;;3.63;;
47273;SDS011;33007;49.082;19.306;2022-10-01T17:18:18;5.07;;;3.45;;
47273;SDS011;33007;49.082;19.306;2022-10-01T17:20:44;4.00;;;3.40;;
47273;SDS011;33007;49.082;19.306;2022-10-01T17:23:13;5.25;;;3.88;;
47273;SDS011;33007;49.082;19.306;2022-10-01T17:25:41;8.32;;;4.22;;
47273;SDS011;33007;49.082;19.306;2022-10-01T17:28:09;7.80;;;4.70;;
47273;SDS011;33007;49.082;19.306;2022-10-01T17:30:38;8.75;;;5.97;;
47273;SDS011;33007;49.082;19.306;2022-10-01T17:33:05;7.45;;;5.97;;
47273;SDS011;33007;49.082;19.306;2022-10-01T17:35:33;9.27;;;6.15;;
47273;SDS011;33007;49.082;19.306;2022-10-01T17:37:58;12.20;;;8.88;;
47273;SDS011;33007;49.082;19.306;2022-10-01T17:40:24;16.13;;;9.18;;
47273;SDS011;33007;49.082;19.306;2022-10-01T17:42:50;10.52;;;7.38;;
47273;SDS011;33007;49.082;19.306;2022-10-01T17:45:15;10.18;;;6.72;;
47273;SDS011;33007;49.082;19.306;2022-10-01T17:47:45;9.80;;;6.80;;